sensor_id;sensor_type;location;lat;lon;timestamp;pressure;altitude;pressure_sealevel;temperature;humidity
56825;BME280;42705;50.326;18.772;2024-03-02T00:00:56;97833.27;;;9.04;76.10
56825;BME280;42705;50.326;18.772;2024-03-02T00:06:38;97825.91;;;9.03;75.95
56825;BME280;42705;50.326;18.772;2024-03-02T00:12:00;97823.29;;;8.99;75.86
56825;BME280;42705;50.326;18.772;2024-03-02T00:17:24;97824.42;;;8.92;75.66
56825;BME280;42705;50.326;18.772;2024-03-02T00:23:04;97823.45;;;8.86;75.52
56825;BME280;42705;50.326;18.772;2024-03-02T00:28:29;97818.90;;;8.78;75.98
56825;BME280;42705;50.326;18.772;2024-03-02T00:33:55;97820.53;;;8.74;75.77
56825;BME280;42705;50.326;18.772;2024-03-02T00:39:17;97821.17;;;8.69;75.80
56825;BME280;42705;50.326;18.772;2024-03-02T00:44:39;97819.75;;;8.63;75.57
56825;BME280;42705;50.326;18.772;2024-03-02T00:50:02;97814.55;;;8.58;75.83
56825;BME280;42705;50.326;18.772;2024-03-02T00:55:25;97814.70;;;8.54;75.72
56825;BME280;42705;50.326;18.772;2024-03-02T01:00:47;97809.21;;;8.57;75.60
56825;BME280;42705;50.326;18.772;2024-03-02T01:06:09;97813.98;;;8.64;75.95
56825;BME280;42705;50.326;18.772;2024-03-02T01:11:31;97813.71;;;8.63;75.57
56825;BME280;42705;50.326;18.772;2024-03-02T01:16:53;97811.80;;;8.59;75.92
56825;BME280;42705;50.326;18.772;2024-03-02T01:22:16;97806.86;;;8.48;75.95
56825;BME280;42705;50.326;18.772;2024-03-02T01:27:38;97795.60;;;8.38;75.73
56825;BME280;42705;50.326;18.772;2024-03-02T01:33:01;97784.10;;;8.29;75.74
56825;BME280;42705;50.326;18.772;2024-03-02T01:38:24;97782.72;;;8.15;76.17
56825;BME280;42705;50.326;18.772;2024-03-02T01:43:46;97780.00;;;8.06;75.70
56825;BME280;42705;50.326;18.772;2024-03-02T01:49:08;97775.95;;;8.05;75.86
56825;BME280;42705;50.326;18.772;2024-03-02T01:54:30;97772.05;;;8.10;76.07
56825;BME280;42705;50.326;18.772;2024-03-02T01:59:52;97771.41;;;8.07;75.84
56825;BME280;42705;50.326;18.772;2024-03-02T02:05:15;97768.14;;;8.06;76.06
56825;BME280;42705;50.326;18.772;2024-03-02T02:10:37;97769.44;;;8.08;75.82
56825;BME280;42705;50.326;18.772;2024-03-02T02:16:08;97765.05;;;8.07;75.98
56825;BME280;42705;50.326;18.772;2024-03-02T02:21:30;97763.60;;;8.04;75.86
56825;BME280;42705;50.326;18.772;2024-03-02T02:26:52;97757.83;;;8.06;76.12
56825;BME280;42705;50.326;18.772;2024-03-02T02:32:14;97756.94;;;8.08;76.07
56825;BME280;42705;50.326;18.772;2024-03-02T02:38:08;97760.94;;;8.09;75.68
56825;BME280;42705;50.326;18.772;2024-03-02T02:43:30;97765.29;;;8.14;76.09
56825;BME280;42705;50.326;18.772;2024-03-02T02:48:52;97765.84;;;8.23;75.90
56825;BME280;42705;50.326;18.772;2024-03-02T02:54:16;97763.60;;;8.25;75.49
56825;BME280;42705;50.326;18.772;2024-03-02T02:59:39;97759.81;;;8.24;75.73
56825;BME280;42705;50.326;18.772;2024-03-02T03:05:01;97761.82;;;8.31;75.78
56825;BME280;42705;50.326;18.772;2024-03-02T03:10:23;97765.23;;;8.30;75.32
56825;BME280;42705;50.326;18.772;2024-03-02T03:15:47;97759.15;;;8.26;75.39
56825;BME280;42705;50.326;18.772;2024-03-02T03:21:09;97761.23;;;8.28;75.37
56825;BME280;42705;50.326;18.772;2024-03-02T03:26:31;97760.31;;;8.30;75.47
56825;BME280;42705;50.326;18.772;2024-03-02T03:31:53;97760.39;;;8.29;75.41
56825;BME280;42705;50.326;18.772;2024-03-02T03:37:15;97763.98;;;8.32;75.43
56825;BME280;42705;50.326;18.772;2024-03-02T03:42:37;97764.16;;;8.34;75.58
56825;BME280;42705;50.326;18.772;2024-03-02T03:48:00;97763.55;;;8.35;75.29
56825;BME280;42705;50.326;18.772;2024-03-02T03:53:22;97767.20;;;8.35;75.25
56825;BME280;42705;50.326;18.772;2024-03-02T03:58:44;97767.05;;;8.38;75.15
56825;BME280;42705;50.326;18.772;2024-03-02T04:04:06;97771.91;;;8.46;75.31
56825;BME280;42705;50.326;18.772;2024-03-02T04:09:28;97767.27;;;8.49;75.11
56825;BME280;42705;50.326;18.772;2024-03-02T04:14:50;97768.34;;;8.49;74.84
56825;BME280;42705;50.326;18.772;2024-03-02T04:20:12;97761.50;;;8.53;74.80
56825;BME280;42705;50.326;18.772;2024-03-02T04:25:34;97755.98;;;8.62;75.10
56825;BME280;42705;50.326;18.772;2024-03-02T04:30:56;97764.41;;;8.65;74.67
56825;BME280;42705;50.326;18.772;2024-03-02T04:36:18;97767.61;;;8.63;74.58
56825;BME280;42705;50.326;18.772;2024-03-02T04:41:40;97772.90;;;8.65;74.46
56825;BME280;42705;50.326;18.772;2024-03-02T04:47:02;97776.61;;;8.73;74.19
56825;BME280;42705;50.326;18.772;2024-03-02T04:52:24;97775.40;;;8.75;74.24
56825;BME280;42705;50.326;18.772;2024-03-02T04:57:46;97774.95;;;8.70;74.28
56825;BME280;42705;50.326;18.772;2024-03-02T05:03:09;97772.55;;;8.69;74.22
56825;BME280;42705;50.326;18.772;2024-03-02T05:08:31;97772.99;;;8.70;73.71
56825;BME280;42705;50.326;18.772;2024-03-02T05:13:52;97781.42;;;8.66;73.89
56825;BME280;42705;50.326;18.772;2024-03-02T05:19:14;97789.27;;;8.62;73.80
56825;BME280;42705;50.326;18.772;2024-03-02T05:24:36;97791.84;;;8.62;73.53
56825;BME280;42705;50.326;18.772;2024-03-02T05:29:59;97801.80;;;8.66;73.80
56825;BME280;42705;50.326;18.772;2024-03-02T05:35:21;97810.43;;;8.68;73.65
56825;BME280;42705;50.326;18.772;2024-03-02T05:40:43;97813.14;;;8.65;73.52
56825;BME280;42705;50.326;18.772;2024-03-02T05:46:05;97811.33;;;8.66;73.34
56825;BME280;42705;50.326;18.772;2024-03-02T05:51:27;97813.29;;;8.65;73.39
56825;BME280;42705;50.326;18.772;2024-03-02T05:56:49;97820.05;;;8.64;73.32
56825;BME280;42705;50.326;18.772;2024-03-02T06:02:10;97824.69;;;8.61;73.27
56825;BME280;42705;50.326;18.772;2024-03-02T06:07:33;97819.61;;;8.63;72.97
56825;BME280;42705;50.326;18.772;2024-03-02T06:12:54;97821.44;;;8.66;73.51
56825;BME280;42705;50.326;18.772;2024-03-02T06:18:16;97825.93;;;8.63;72.94
56825;BME280;42705;50.326;18.772;2024-03-02T06:23:38;97829.52;;;8.62;73.33
56825;BME280;42705;50.326;18.772;2024-03-02T06:29:00;97830.66;;;8.72;73.56
56825;BME280;42705;50.326;18.772;2024-03-02T06:34:24;97836.44;;;8.83;73.12
56825;BME280;42705;50.326;18.772;2024-03-02T06:39:45;97834.66;;;8.91;73.28
56825;BME280;42705;50.326;18.772;2024-03-02T06:45:07;97844.64;;;8.96;73.16
56825;BME280;42705;50.326;18.772;2024-03-02T06:50:29;97835.81;;;9.03;72.70
56825;BME280;42705;50.326;18.772;2024-03-02T06:55:51;97847.05;;;9.11;72.79
56825;BME280;42705;50.326;18.772;2024-03-02T07:01:13;97846.60;;;9.12;72.52
56825;BME280;42705;50.326;18.772;2024-03-02T07:06:35;97854.32;;;9.17;72.91
56825;BME280;42705;50.326;18.772;2024-03-02T07:11:58;97850.17;;;9.28;72.79
56825;BME280;42705;50.326;18.772;2024-03-02T07:17:20;97846.65;;;9.39;72.74
56825;BME280;42705;50.326;18.772;2024-03-02T07:22:41;97851.48;;;9.47;72.44
56825;BME280;42705;50.326;18.772;2024-03-02T07:28:04;97854.06;;;9.53;72.42
56825;BME280;42705;50.326;18.772;2024-03-02T07:33:26;97852.48;;;9.66;72.44
56825;BME280;42705;50.326;18.772;2024-03-02T07:38:48;97857.42;;;9.74;71.96
56825;BME280;42705;50.326;18.772;2024-03-02T07:44:12;97859.11;;;9.80;72.08
56825;BME280;42705;50.326;18.772;2024-03-02T07:49:38;97860.38;;;9.83;71.78
56825;BME280;42705;50.326;18.772;2024-03-02T07:55:00;97865.48;;;9.85;71.89
56825;BME280;42705;50.326;18.772;2024-03-02T08:00:22;97867.31;;;9.98;71.89
56825;BME280;42705;50.326;18.772;2024-03-02T08:05:45;97875.55;;;10.09;71.50
56825;BME280;42705;50.326;18.772;2024-03-02T08:11:07;97873.89;;;10.17;71.36
56825;BME280;42705;50.326;18.772;2024-03-02T08:16:29;97873.30;;;10.21;71.21
56825;BME280;42705;50.326;18.772;2024-03-02T08:21:51;97868.91;;;10.25;70.84
56825;BME280;42705;50.326;18.772;2024-03-02T08:27:13;97866.48;;;10.34;70.89
56825;BME280;42705;50.326;18.772;2024-03-02T08:32:36;97869.77;;;10.43;70.92
56825;BME280;42705;50.326;18.772;2024-03-02T08:37:58;97871.55;;;10.50;70.53
56825;BME280;42705;50.326;18.772;2024-03-02T08:43:20;97870.21;;;10.58;70.60
56825;BME280;42705;50.326;18.772;2024-03-02T08:48:44;97869.73;;;10.66;70.44
56825;BME280;42705;50.326;18.772;2024-03-02T08:54:06;97868.14;;;10.75;70.23
56825;BME280;42705;50.326;18.772;2024-03-02T08:59:28;97872.46;;;10.81;70.21
56825;BME280;42705;50.326;18.772;2024-03-02T09:04:50;97875.02;;;10.90;70.00
56825;BME280;42705;50.326;18.772;2024-03-02T09:10:16;97882.84;;;10.99;69.95
56825;BME280;42705;50.326;18.772;2024-03-02T09:15:38;97883.75;;;11.15;69.98
56825;BME280;42705;50.326;18.772;2024-03-02T09:21:01;97887.58;;;11.30;69.76
56825;BME280;42705;50.326;18.772;2024-03-02T09:26:23;97885.33;;;11.40;69.47
56825;BME280;42705;50.326;18.772;2024-03-02T09:31:46;97888.33;;;11.50;69.43
56825;BME280;42705;50.326;18.772;2024-03-02T09:37:08;97891.03;;;11.62;69.04
56825;BME280;42705;50.326;18.772;2024-03-02T09:42:30;97889.69;;;11.69;68.73
56825;BME280;42705;50.326;18.772;2024-03-02T09:47:54;97887.30;;;11.77;68.54
56825;BME280;42705;50.326;18.772;2024-03-02T09:53:17;97889.30;;;11.85;68.45
56825;BME280;42705;50.326;18.772;2024-03-02T09:58:40;97889.06;;;11.96;68.26
56825;BME280;42705;50.326;18.772;2024-03-02T10:04:02;97885.28;;;12.13;68.02
56825;BME280;42705;50.326;18.772;2024-03-02T10:09:27;97886.81;;;12.34;67.88
56825;BME280;42705;50.326;18.772;2024-03-02T10:15:03;97886.51;;;12.50;67.53
56825;BME280;42705;50.326;18.772;2024-03-02T10:20:27;97884.95;;;12.61;67.48
56825;BME280;42705;50.326;18.772;2024-03-02T10:25:54;97883.31;;;12.75;67.33
56825;BME280;42705;50.326;18.772;2024-03-02T10:31:16;97886.91;;;12.92;67.05
56825;BME280;42705;50.326;18.772;2024-03-02T10:36:41;97886.04;;;12.96;66.83
56825;BME280;42705;50.326;18.772;2024-03-02T10:42:05;97889.10;;;12.94;66.71
56825;BME280;42705;50.326;18.772;2024-03-02T10:47:29;97886.62;;;12.99;66.61
56825;BME280;42705;50.326;18.772;2024-03-02T10:52:53;97888.06;;;13.11;66.48
56825;BME280;42705;50.326;18.772;2024-03-02T10:58:15;97892.11;;;13.23;66.34
56825;BME280;42705;50.326;18.772;2024-03-02T11:03:42;97887.65;;;13.23;66.33
56825;BME280;42705;50.326;18.772;2024-03-02T11:09:07;97885.06;;;13.18;66.18
56825;BME280;42705;50.326;18.772;2024-03-02T11:14:31;97893.48;;;13.07;66.02
56825;BME280;42705;50.326;18.772;2024-03-02T11:19:55;97897.93;;;12.95;66.25
56825;BME280;42705;50.326;18.772;2024-03-02T11:25:27;97893.03;;;12.90;66.21
56825;BME280;42705;50.326;18.772;2024-03-02T11:30:50;97897.60;;;12.75;65.99
56825;BME280;42705;50.326;18.772;2024-03-02T11:36:12;97891.64;;;12.62;65.55
56825;BME280;42705;50.326;18.772;2024-03-02T11:41:34;97888.26;;;12.53;65.41
56825;BME280;42705;50.326;18.772;2024-03-02T11:47:06;97890.10;;;12.59;65.35
56825;BME280;42705;50.326;18.772;2024-03-02T11:52:29;97887.63;;;12.67;64.50
56825;BME280;42705;50.326;18.772;2024-03-02T11:57:52;97884.11;;;12.70;64.28
56825;BME280;42705;50.326;18.772;2024-03-02T12:03:14;97880.88;;;12.78;64.35
56825;BME280;42705;50.326;18.772;2024-03-02T12:08:37;97876.86;;;12.87;64.34
56825;BME280;42705;50.326;18.772;2024-03-02T12:13:59;97871.35;;;12.98;64.13
56825;BME280;42705;50.326;18.772;2024-03-02T12:19:21;97876.23;;;13.03;63.81
56825;BME280;42705;50.326;18.772;2024-03-02T12:24:44;97874.05;;;13.02;63.51
56825;BME280;42705;50.326;18.772;2024-03-02T12:30:09;97874.67;;;12.90;63.20
56825;BME280;42705;50.326;18.772;2024-03-02T12:35:32;97870.40;;;12.77;63.02
56825;BME280;42705;50.326;18.772;2024-03-02T12:40:54;97871.56;;;12.73;63.27
56825;BME280;42705;50.326;18.772;2024-03-02T12:46:16;97878.25;;;12.76;63.60
56825;BME280;42705;50.326;18.772;2024-03-02T12:51:41;97878.38;;;12.78;63.44
56825;BME280;42705;50.326;18.772;2024-03-02T12:57:04;97871.52;;;12.77;63.69
56825;BME280;42705;50.326;18.772;2024-03-02T13:02:30;97871.69;;;12.75;63.96
56825;BME280;42705;50.326;18.772;2024-03-02T13:07:52;97872.94;;;12.68;64.17
56825;BME280;42705;50.326;18.772;2024-03-02T13:13:15;97871.05;;;12.60;64.41
56825;BME280;42705;50.326;18.772;2024-03-02T13:18:40;97871.41;;;12.50;64.94
56825;BME280;42705;50.326;18.772;2024-03-02T13:24:04;97871.73;;;12.45;65.53
56825;BME280;42705;50.326;18.772;2024-03-02T13:29:26;97869.81;;;12.37;65.84
56825;BME280;42705;50.326;18.772;2024-03-02T13:34:50;97863.68;;;12.21;66.02
56825;BME280;42705;50.326;18.772;2024-03-02T13:40:12;97860.86;;;12.06;66.79
56825;BME280;42705;50.326;18.772;2024-03-02T13:45:34;97862.30;;;11.92;67.26
56825;BME280;42705;50.326;18.772;2024-03-02T13:50:56;97869.17;;;11.75;67.58
56825;BME280;42705;50.326;18.772;2024-03-02T13:56:19;97871.75;;;11.60;67.99
56825;BME280;42705;50.326;18.772;2024-03-02T14:01:41;97879.41;;;11.49;68.40
56825;BME280;42705;50.326;18.772;2024-03-02T14:07:03;97884.71;;;11.45;68.90
56825;BME280;42705;50.326;18.772;2024-03-02T14:12:25;97878.35;;;11.45;69.35
56825;BME280;42705;50.326;18.772;2024-03-02T14:17:47;97876.08;;;11.52;69.60
56825;BME280;42705;50.326;18.772;2024-03-02T14:23:09;97875.39;;;11.52;69.76
56825;BME280;42705;50.326;18.772;2024-03-02T14:28:32;97873.17;;;11.43;69.82
56825;BME280;42705;50.326;18.772;2024-03-02T14:33:54;97878.98;;;11.36;70.14
56825;BME280;42705;50.326;18.772;2024-03-02T14:39:16;97879.88;;;11.29;70.32
56825;BME280;42705;50.326;18.772;2024-03-02T14:44:38;97874.30;;;11.28;70.81
56825;BME280;42705;50.326;18.772;2024-03-02T14:50:04;97870.02;;;11.33;71.13
56825;BME280;42705;50.326;18.772;2024-03-02T14:55:30;97859.75;;;11.25;71.21
56825;BME280;42705;50.326;18.772;2024-03-02T15:00:52;97854.14;;;11.21;71.68
56825;BME280;42705;50.326;18.772;2024-03-02T15:06:15;97847.25;;;11.26;71.93
56825;BME280;42705;50.326;18.772;2024-03-02T15:11:36;97843.45;;;11.27;71.85
56825;BME280;42705;50.326;18.772;2024-03-02T15:16:59;97841.33;;;11.16;71.74
56825;BME280;42705;50.326;18.772;2024-03-02T15:22:21;97841.63;;;11.06;72.14
56825;BME280;42705;50.326;18.772;2024-03-02T15:27:43;97848.98;;;11.09;72.64
56825;BME280;42705;50.326;18.772;2024-03-02T15:33:05;97850.55;;;11.23;72.86
56825;BME280;42705;50.326;18.772;2024-03-02T15:38:27;97849.11;;;11.44;72.87
56825;BME280;42705;50.326;18.772;2024-03-02T15:43:49;97847.67;;;11.64;72.89
56825;BME280;42705;50.326;18.772;2024-03-02T15:49:11;97848.11;;;11.72;72.63
56825;BME280;42705;50.326;18.772;2024-03-02T15:54:33;97844.42;;;11.76;72.49
56825;BME280;42705;50.326;18.772;2024-03-02T15:59:55;97849.40;;;11.85;72.60
56825;BME280;42705;50.326;18.772;2024-03-02T16:05:17;97855.55;;;11.93;72.47
56825;BME280;42705;50.326;18.772;2024-03-02T16:10:40;97855.77;;;11.94;72.14
56825;BME280;42705;50.326;18.772;2024-03-02T16:16:02;97859.80;;;11.84;72.18
56825;BME280;42705;50.326;18.772;2024-03-02T16:21:24;97863.98;;;11.68;71.94
56825;BME280;42705;50.326;18.772;2024-03-02T16:26:47;97867.13;;;11.59;72.24
56825;BME280;42705;50.326;18.772;2024-03-02T16:32:09;97864.80;;;11.56;72.41
56825;BME280;42705;50.326;18.772;2024-03-02T16:37:31;97866.94;;;11.56;72.63
56825;BME280;42705;50.326;18.772;2024-03-02T16:42:53;97867.98;;;11.54;72.60
56825;BME280;42705;50.326;18.772;2024-03-02T16:48:15;97866.61;;;11.56;72.68
56825;BME280;42705;50.326;18.772;2024-03-02T16:53:38;97861.09;;;11.60;72.75
56825;BME280;42705;50.326;18.772;2024-03-02T16:59:01;97864.08;;;11.65;72.55
56825;BME280;42705;50.326;18.772;2024-03-02T17:04:23;97865.58;;;11.64;72.42
56825;BME280;42705;50.326;18.772;2024-03-02T17:09:45;97864.18;;;11.66;72.43
56825;BME280;42705;50.326;18.772;2024-03-02T17:15:08;97865.42;;;11.69;72.29
56825;BME280;42705;50.326;18.772;2024-03-02T17:20:30;97867.29;;;11.69;72.25
56825;BME280;42705;50.326;18.772;2024-03-02T17:25:51;97866.50;;;11.67;72.07
56825;BME280;42705;50.326;18.772;2024-03-02T17:31:13;97862.44;;;11.67;72.12
56825;BME280;42705;50.326;18.772;2024-03-02T17:36:35;97863.55;;;11.70;72.13
56825;BME280;42705;50.326;18.772;2024-03-02T17:41:57;97857.23;;;11.69;72.09
56825;BME280;42705;50.326;18.772;2024-03-02T17:47:19;97860.98;;;11.65;71.89
56825;BME280;42705;50.326;18.772;2024-03-02T17:52:42;97861.23;;;11.62;71.81
56825;BME280;42705;50.326;18.772;2024-03-02T17:58:12;97851.67;;;11.62;72.00
56825;BME280;42705;50.326;18.772;2024-03-02T18:03:34;97853.08;;;11.60;72.07
56825;BME280;42705;50.326;18.772;2024-03-02T18:08:56;97857.02;;;11.55;71.90
56825;BME280;42705;50.326;18.772;2024-03-02T18:14:19;97855.92;;;11.54;72.03
56825;BME280;42705;50.326;18.772;2024-03-02T18:19:41;97857.64;;;11.51;72.09
56825;BME280;42705;50.326;18.772;2024-03-02T18:25:03;97855.34;;;11.45;72.04
56825;BME280;42705;50.326;18.772;2024-03-02T18:30:25;97852.77;;;11.37;72.07
56825;BME280;42705;50.326;18.772;2024-03-02T18:35:47;97847.11;;;11.34;72.09
56825;BME280;42705;50.326;18.772;2024-03-02T18:41:09;97852.37;;;11.33;72.30
56825;BME280;42705;50.326;18.772;2024-03-02T18:46:31;97848.55;;;11.26;72.26
56825;BME280;42705;50.326;18.772;2024-03-02T18:51:53;97849.54;;;11.21;72.28
56825;BME280;42705;50.326;18.772;2024-03-02T18:57:16;97846.41;;;11.17;72.22
56825;BME280;42705;50.326;18.772;2024-03-02T19:02:38;97838.77;;;11.10;72.30
56825;BME280;42705;50.326;18.772;2024-03-02T19:08:00;97844.32;;;11.00;72.33
56825;BME280;42705;50.326;18.772;2024-03-02T19:13:22;97849.87;;;10.95;72.36
56825;BME280;42705;50.326;18.772;2024-03-02T19:18:45;97847.65;;;10.92;72.47
56825;BME280;42705;50.326;18.772;2024-03-02T19:24:07;97845.89;;;10.83;72.53
56825;BME280;42705;50.326;18.772;2024-03-02T19:29:29;97842.41;;;10.78;72.46
56825;BME280;42705;50.326;18.772;2024-03-02T19:34:51;97842.69;;;10.73;72.44
56825;BME280;42705;50.326;18.772;2024-03-02T19:40:15;97842.42;;;10.65;72.69
56825;BME280;42705;50.326;18.772;2024-03-02T19:45:39;97835.25;;;10.55;72.30
56825;BME280;42705;50.326;18.772;2024-03-02T19:51:02;97834.80;;;10.48;72.46
56825;BME280;42705;50.326;18.772;2024-03-02T19:56:26;97838.27;;;10.42;72.58
56825;BME280;42705;50.326;18.772;2024-03-02T20:01:50;97835.09;;;10.37;72.66
56825;BME280;42705;50.326;18.772;2024-03-02T20:07:12;97831.95;;;10.33;72.85
56825;BME280;42705;50.326;18.772;2024-03-02T20:12:34;97829.95;;;10.29;72.90
56825;BME280;42705;50.326;18.772;2024-03-02T20:17:56;97827.78;;;10.22;73.13
56825;BME280;42705;50.326;18.772;2024-03-02T20:23:18;97832.39;;;10.20;73.07
56825;BME280;42705;50.326;18.772;2024-03-02T20:28:40;97833.42;;;10.19;73.11
56825;BME280;42705;50.326;18.772;2024-03-02T20:34:04;97829.32;;;10.16;73.36
56825;BME280;42705;50.326;18.772;2024-03-02T20:39:27;97830.33;;;10.16;73.29
56825;BME280;42705;50.326;18.772;2024-03-02T20:44:49;97824.64;;;10.12;73.18
56825;BME280;42705;50.326;18.772;2024-03-02T20:50:11;97830.89;;;10.07;73.58
56825;BME280;42705;50.326;18.772;2024-03-02T20:55:34;97828.48;;;10.05;73.48
56825;BME280;42705;50.326;18.772;2024-03-02T21:01:01;97832.19;;;10.04;73.84
56825;BME280;42705;50.326;18.772;2024-03-02T21:06:26;97830.80;;;10.02;73.67
56825;BME280;42705;50.326;18.772;2024-03-02T21:11:48;97834.13;;;9.95;73.66
56825;BME280;42705;50.326;18.772;2024-03-02T21:17:10;97830.63;;;9.83;73.51
56825;BME280;42705;50.326;18.772;2024-03-02T21:22:32;97831.01;;;9.59;73.61
56825;BME280;42705;50.326;18.772;2024-03-02T21:27:54;97832.26;;;9.40;74.07
56825;BME280;42705;50.326;18.772;2024-03-02T21:33:16;97828.76;;;9.24;74.52
56825;BME280;42705;50.326;18.772;2024-03-02T21:38:38;97829.94;;;9.15;74.68
56825;BME280;42705;50.326;18.772;2024-03-02T21:44:00;97836.77;;;9.13;74.68
56825;BME280;42705;50.326;18.772;2024-03-02T21:49:22;97840.66;;;9.10;75.15
56825;BME280;42705;50.326;18.772;2024-03-02T21:54:45;97837.95;;;9.08;75.13
56825;BME280;42705;50.326;18.772;2024-03-02T22:00:08;97841.25;;;9.13;75.18
56825;BME280;42705;50.326;18.772;2024-03-02T22:05:36;97845.23;;;9.19;75.31
56825;BME280;42705;50.326;18.772;2024-03-02T22:10:58;97846.41;;;9.25;75.30
56825;BME280;42705;50.326;18.772;2024-03-02T22:16:20;97842.98;;;9.28;75.33
56825;BME280;42705;50.326;18.772;2024-03-02T22:21:42;97845.92;;;9.28;75.27
56825;BME280;42705;50.326;18.772;2024-03-02T22:27:04;97837.89;;;9.34;75.57
56825;BME280;42705;50.326;18.772;2024-03-02T22:32:26;97836.34;;;9.47;75.49
56825;BME280;42705;50.326;18.772;2024-03-02T22:37:48;97832.76;;;9.59;75.57
56825;BME280;42705;50.326;18.772;2024-03-02T22:43:11;97830.59;;;9.70;75.29
56825;BME280;42705;50.326;18.772;2024-03-02T22:48:33;97832.16;;;9.78;75.18
56825;BME280;42705;50.326;18.772;2024-03-02T22:53:55;97832.45;;;9.78;74.92
56825;BME280;42705;50.326;18.772;2024-03-02T22:59:17;97830.85;;;9.75;74.66
56825;BME280;42705;50.326;18.772;2024-03-02T23:04:39;97827.89;;;9.71;74.64
56825;BME280;42705;50.326;18.772;2024-03-02T23:10:01;97830.90;;;9.55;73.96
56825;BME280;42705;50.326;18.772;2024-03-02T23:15:23;97835.97;;;9.38;74.38
56825;BME280;42705;50.326;18.772;2024-03-02T23:20:50;97834.33;;;9.28;74.08
56825;BME280;42705;50.326;18.772;2024-03-02T23:26:12;97836.05;;;9.22;74.02
56825;BME280;42705;50.326;18.772;2024-03-02T23:31:34;97832.77;;;9.20;74.16
56825;BME280;42705;50.326;18.772;2024-03-02T23:36:56;97827.77;;;9.18;73.90
56825;BME280;42705;50.326;18.772;2024-03-02T23:42:18;97823.45;;;9.16;73.77
56825;BME280;42705;50.326;18.772;2024-03-02T23:47:40;97821.35;;;9.10;73.69
56825;BME280;42705;50.326;18.772;2024-03-02T23:53:02;97818.62;;;9.06;73.52
56825;BME280;42705;50.326;18.772;2024-03-02T23:58:25;97820.31;;;9.03;73.27
